Time;durP1;ratioP1;P1;durP2;ratioP2;P2;SDS_P1;SDS_P2;PMS_P1;PMS_P2;Temp;Humidity;BMP_temperature;BMP_pressure;BME280_temperature;BME280_humidity;BME280_pressure;Samples;Min_cycle;Max_cycle;Signal;HPM_P1;HPM_P2
2022/02/20 00:01:19;;;;;;;8.93;5.12;;;;;;;4.06;76.71;100202.84;1735016;82;21316;-58
2022/02/20 00:04:24;;;;;;;7.45;3.62;;;;;;;4.05;76.61;100209.75;1735305;82;21240;-59
2022/02/20 00:07:29;;;;;;;7.37;3.95;;;;;;;4.05;76.46;100205.69;1735548;82;21209;-59
2022/02/20 00:10:36;;;;;;;7.30;4.10;;;;;;;4.03;76.34;100204.97;1735555;82;21239;-59
2022/02/20 00:13:42;;;;;;;7.70;4.20;;;;;;;4.03;76.07;100207.67;1735645;82;21721;-59
2022/02/20 00:16:52;;;;;;;9.63;3.98;;;;;;;4.02;75.89;100209.55;1735460;82;21224;-60
2022/02/20 00:19:58;;;;;;;6.70;3.90;;;;;;;4.01;75.79;100206.45;1735495;82;21220;-59
2022/02/20 00:23:08;;;;;;;9.95;4.30;;;;;;;3.99;75.65;100204.41;1735135;81;21370;-58
2022/02/20 00:26:13;;;;;;;8.78;4.55;;;;;;;3.98;75.43;100210.80;1711745;83;21411;-59
2022/02/20 00:29:20;;;;;;;7.87;4.10;;;;;;;3.98;75.20;100214.86;1693646;81;21268;-58
2022/02/20 00:32:28;;;;;;;9.63;4.28;;;;;;;3.95;75.00;100212.92;1740669;82;21406;-59
2022/02/20 00:35:35;;;;;;;12.00;4.97;;;;;;;3.93;74.88;100217.13;1740697;81;21240;-59
2022/02/20 00:38:40;;;;;;;12.73;5.05;;;;;;;3.92;74.73;100208.66;1740305;82;21240;-59
2022/02/20 00:41:48;;;;;;;9.00;4.87;;;;;;;3.93;74.42;100214.41;1739867;82;21263;-58
2022/02/20 00:44:54;;;;;;;9.00;4.62;;;;;;;3.96;74.11;100216.01;1740649;81;21213;-58
2022/02/20 00:48:02;;;;;;;12.13;5.00;;;;;;;3.96;73.77;100206.05;1740015;82;21340;-60
2022/02/20 00:51:11;;;;;;;9.23;4.00;;;;;;;3.99;73.30;100212.53;1740574;81;21217;-61
2022/02/20 00:54:18;;;;;;;9.83;4.40;;;;;;;3.99;72.98;100215.24;1739845;81;21178;-59
2022/02/20 00:57:24;;;;;;;9.10;4.25;;;;;;;4.01;72.72;100223.23;1739504;82;21236;-59
2022/02/20 01:00:31;;;;;;;7.95;4.40;;;;;;;3.98;72.55;100229.75;1740035;81;21556;-60
2022/02/20 01:03:37;;;;;;;7.87;3.67;;;;;;;3.97;72.43;100225.34;1740350;82;21323;-58
2022/02/20 01:06:43;;;;;;;7.22;3.98;;;;;;;3.96;72.30;100225.00;1740128;82;21367;-59
2022/02/20 01:09:49;;;;;;;10.25;4.45;;;;;;;3.93;72.26;100230.66;1733173;81;21208;-59
2022/02/20 01:13:00;;;;;;;8.05;4.28;;;;;;;3.93;72.07;100229.30;1762272;80;21883;-59
2022/02/20 01:16:06;;;;;;;10.25;5.12;;;;;;;3.92;71.75;100230.31;1740509;81;21259;-60
2022/02/20 01:19:12;;;;;;;10.65;5.40;;;;;;;3.93;71.53;100237.95;1740501;81;21208;-59
2022/02/20 01:22:18;;;;;;;10.40;5.37;;;;;;;3.91;71.16;100232.67;1740072;82;21583;-59
2022/02/20 01:25:25;;;;;;;7.85;4.00;;;;;;;3.91;70.83;100238.09;1740485;81;21236;-58
2022/02/20 01:28:31;;;;;;;11.60;4.30;;;;;;;3.93;70.49;100242.01;1740227;82;21725;-58
2022/02/20 01:31:36;;;;;;;7.10;3.83;;;;;;;3.94;69.96;100239.16;1741377;79;21366;-58
2022/02/20 01:34:41;;;;;;;8.03;4.30;;;;;;;3.96;69.71;100241.73;1740304;81;21378;-60
2022/02/20 01:37:48;;;;;;;8.40;3.80;;;;;;;3.95;69.40;100242.22;1740770;82;21253;-60
2022/02/20 01:40:56;;;;;;;8.88;4.35;;;;;;;3.95;69.22;100242.70;1740124;81;21290;-59
2022/02/20 01:44:01;;;;;;;13.13;4.70;;;;;;;3.94;69.02;100251.83;1740132;82;21213;-60
2022/02/20 01:47:14;;;;;;;7.90;4.50;;;;;;;3.93;68.82;100245.55;1740355;82;21417;-60
2022/02/20 01:50:20;;;;;;;12.18;4.83;;;;;;;3.93;68.67;100249.61;1740167;81;21224;-63
2022/02/20 01:53:26;;;;;;;10.72;4.40;;;;;;;3.93;68.48;100251.48;1740367;82;21568;-60
2022/02/20 01:56:32;;;;;;;9.75;4.40;;;;;;;3.92;68.42;100262.80;1740605;80;21862;-60
2022/02/20 01:59:45;;;;;;;8.53;3.75;;;;;;;3.89;68.30;100249.55;1740113;81;21216;-60
2022/02/20 02:03:09;;;;;;;7.47;4.25;;;;;;;3.87;68.22;100254.23;1734985;82;21204;-60
2022/02/20 02:06:16;;;;;;;8.23;3.95;;;;;;;3.82;68.28;100253.78;1740394;81;21386;-59
2022/02/20 02:09:26;;;;;;;9.20;4.55;;;;;;;3.80;68.35;100260.33;1752961;79;21240;-60
2022/02/20 02:12:49;;;;;;;11.28;4.40;;;;;;;3.78;68.39;100268.59;1770543;80;21260;-60
2022/02/20 02:16:01;;;;;;;7.22;4.58;;;;;;;3.76;68.50;100271.92;1770496;79;21210;-59
2022/02/20 02:19:11;;;;;;;9.45;4.28;;;;;;;3.73;68.58;100268.14;1733417;80;21269;-59
2022/02/20 02:22:32;;;;;;;7.12;4.67;;;;;;;3.70;68.66;100271.12;1768794;81;21327;-60
2022/02/20 02:25:38;;;;;;;9.40;4.05;;;;;;;3.66;68.85;100274.23;1760273;81;21247;-58
2022/02/20 02:29:02;;;;;;;9.13;5.15;;;;;;;3.63;68.96;100278.05;1739346;81;21353;-59
2022/02/20 02:32:08;;;;;;;7.85;3.80;;;;;;;3.60;69.00;100264.78;1761641;80;21331;-58
2022/02/20 02:35:15;;;;;;;8.48;4.53;;;;;;;3.56;69.11;100268.77;1760693;81;21220;-59
2022/02/20 02:38:26;;;;;;;7.75;4.08;;;;;;;3.55;69.08;100277.86;1760917;81;21837;-59
2022/02/20 02:41:29;;;;;;;8.10;4.15;;;;;;;3.55;68.98;100283.27;1760793;81;21227;-58
2022/02/20 02:44:34;;;;;;;8.63;3.83;;;;;;;3.54;69.02;100276.16;1760847;81;21211;-59
2022/02/20 02:47:39;;;;;;;7.78;4.03;;;;;;;3.53;69.02;100284.41;1761067;81;22029;-60
2022/02/20 02:50:44;;;;;;;13.83;4.85;;;;;;;3.51;69.05;100268.80;1760759;81;21255;-58
2022/02/20 02:53:50;;;;;;;9.40;4.10;;;;;;;3.48;69.15;100271.77;1761456;81;21203;-60
2022/02/20 02:56:57;;;;;;;8.68;4.53;;;;;;;3.45;69.19;100272.91;1761325;81;21169;-60
2022/02/20 03:00:01;;;;;;;13.32;4.50;;;;;;;3.42;69.25;100277.72;1761456;81;21251;-59
2022/02/20 03:03:06;;;;;;;10.63;4.20;;;;;;;3.38;69.34;100278.48;1761378;81;21319;-60
2022/02/20 03:06:21;;;;;;;10.00;5.17;;;;;;;3.37;69.48;100280.83;1761634;81;21286;-59
2022/02/20 03:09:30;;;;;;;7.90;4.40;;;;;;;3.33;69.54;100282.07;1761658;81;21220;-60
2022/02/20 03:12:35;;;;;;;6.37;3.62;;;;;;;3.30;69.59;100274.22;1761548;81;21243;-59
2022/02/20 03:15:42;;;;;;;9.63;3.87;;;;;;;3.29;69.55;100284.70;1761318;81;21377;-60
2022/02/20 03:18:48;;;;;;;12.33;4.12;;;;;;;3.28;69.51;100283.48;1761625;81;21204;-60
2022/02/20 03:21:56;;;;;;;9.78;3.87;;;;;;;3.26;69.47;100290.38;1761603;81;21338;-59
2022/02/20 03:25:01;;;;;;;8.53;3.80;;;;;;;3.27;69.33;100294.78;1761555;81;21248;-59
2022/02/20 03:28:07;;;;;;;7.20;3.90;;;;;;;3.26;69.17;100301.19;1761566;81;21192;-59
2022/02/20 03:31:15;;;;;;;8.78;3.45;;;;;;;3.27;69.09;100302.89;1761591;81;21635;-59
2022/02/20 03:34:20;;;;;;;8.93;4.10;;;;;;;3.27;69.07;100306.95;1708631;82;21218;-60
2022/02/20 03:37:26;;;;;;;6.33;2.90;;;;;;;3.26;69.02;100309.30;1716197;82;21214;-59
2022/02/20 03:40:31;;;;;;;6.20;3.58;;;;;;;3.26;68.95;100314.72;1711327;82;21258;-59
2022/02/20 03:43:40;;;;;;;7.65;3.70;;;;;;;3.26;68.85;100310.66;1722923;82;21596;-61
2022/02/20 03:46:47;;;;;;;10.05;4.08;;;;;;;3.27;68.66;100315.06;1706133;83;21510;-58
2022/02/20 03:49:53;;;;;;;8.28;3.50;;;;;;;3.29;68.55;100313.09;1707694;82;21223;-59
2022/02/20 03:53:00;;;;;;;7.30;2.87;;;;;;;3.29;68.47;100313.58;1707653;83;21199;-59
2022/02/20 03:56:06;;;;;;;5.83;2.87;;;;;;;3.29;68.38;100313.09;1700634;83;21273;-59
2022/02/20 03:59:13;;;;;;;8.13;3.20;;;;;;;3.29;68.24;100325.75;1706705;83;21356;-58
2022/02/20 04:02:13;;;;;;;5.67;2.87;;;;;;;3.29;68.18;100314.45;1707223;83;21433;-60
2022/02/20 04:05:22;;;;;;;7.90;3.08;;;;;;;3.32;68.12;100321.43;1707081;83;21231;-60
2022/02/20 04:08:26;;;;;;;6.22;3.02;;;;;;;3.31;68.03;100320.59;1706895;83;21716;-60
2022/02/20 04:11:33;;;;;;;4.87;2.70;;;;;;;3.31;67.98;100317.02;1713014;82;21222;-60
2022/02/20 04:14:40;;;;;;;6.53;3.02;;;;;;;3.30;67.91;100324.27;1711002;82;21282;-60
2022/02/20 04:17:56;;;;;;;6.50;3.25;;;;;;;3.28;67.88;100318.16;1716849;82;21222;-61
2022/02/20 04:21:01;;;;;;;6.33;2.75;;;;;;;3.28;67.82;100328.98;1709632;82;21257;-60
2022/02/20 04:24:07;;;;;;;6.15;2.90;;;;;;;3.28;67.87;100326.27;1711846;82;21215;-60
2022/02/20 04:27:12;;;;;;;5.65;2.80;;;;;;;3.28;67.80;100329.46;1706551;83;21230;-59
2022/02/20 04:30:19;;;;;;;8.55;2.75;;;;;;;3.28;67.79;100333.52;1706555;83;21672;-60
2022/02/20 04:33:26;;;;;;;5.90;2.52;;;;;;;3.26;67.82;100343.59;1712302;79;21248;-60
2022/02/20 04:36:35;;;;;;;7.10;3.08;;;;;;;3.24;67.86;100342.37;1761588;81;21219;-61
2022/02/20 04:39:42;;;;;;;6.47;3.50;;;;;;;3.23;67.95;100344.73;1761677;81;21816;-60
2022/02/20 04:42:51;;;;;;;7.55;3.42;;;;;;;3.22;68.01;100339.45;1761474;81;21437;-60
2022/02/20 04:45:56;;;;;;;6.03;3.12;;;;;;;3.21;68.06;100346.70;1761617;81;21230;-61
2022/02/20 04:49:00;;;;;;;6.50;3.40;;;;;;;3.19;68.13;100345.97;1733618;81;21308;-60
2022/02/20 04:52:24;;;;;;;5.58;2.90;;;;;;;3.18;68.17;100355.56;1761695;81;21338;-61
2022/02/20 04:55:30;;;;;;;5.95;3.22;;;;;;;3.18;68.16;100359.13;1761591;81;21196;-60
2022/02/20 04:58:36;;;;;;;11.30;4.05;;;;;;;3.19;68.12;100365.41;1761565;81;21338;-60
2022/02/20 05:01:43;;;;;;;8.88;3.85;;;;;;;3.18;68.03;100368.60;1761493;81;21223;-60
2022/02/20 05:04:51;;;;;;;11.70;3.77;;;;;;;3.18;68.07;100381.25;1735164;81;21451;-61
2022/02/20 05:07:58;;;;;;;10.10;4.20;;;;;;;3.19;68.16;100382.48;1729641;81;21342;-61
2022/02/20 05:11:03;;;;;;;8.88;4.10;;;;;;;3.19;68.23;100389.75;1761963;81;21389;-60
2022/02/20 05:14:10;;;;;;;8.78;4.05;;;;;;;3.18;68.36;100386.17;1761614;81;21255;-61
2022/02/20 05:17:17;;;;;;;7.62;3.02;;;;;;;3.18;68.44;100388.88;1762059;81;21334;-60
2022/02/20 05:20:25;;;;;;;5.37;2.75;;;;;;;3.18;68.48;100386.66;1761734;81;21369;-60
2022/02/20 05:23:30;;;;;;;8.20;2.90;;;;;;;3.20;68.53;100385.56;1761773;81;21349;-61
2022/02/20 05:26:36;;;;;;;5.17;2.55;;;;;;;3.23;68.56;100389.84;1761591;81;21528;-62
2022/02/20 05:29:45;;;;;;;5.53;2.80;;;;;;;3.25;68.62;100389.23;1761614;81;21365;-60
2022/02/20 05:32:53;;;;;;;8.03;2.90;;;;;;;3.27;68.53;100385.39;1761801;81;21200;-61
2022/02/20 05:36:02;;;;;;;6.17;2.52;;;;;;;3.31;68.52;100386.00;1762130;80;21246;-61
2022/02/20 05:39:10;;;;;;;5.47;2.72;;;;;;;3.33;68.49;100387.58;1761780;81;21204;-61
2022/02/20 05:42:18;;;;;;;6.10;2.83;;;;;;;3.38;68.45;100393.45;1761633;81;21220;-62
2022/02/20 05:45:26;;;;;;;8.30;3.92;;;;;;;3.41;68.36;100388.30;1761649;81;21366;-60
2022/02/20 05:48:34;;;;;;;8.35;4.25;;;;;;;3.45;68.40;100400.08;1761347;80;21342;-60
2022/02/20 05:51:43;;;;;;;5.70;2.92;;;;;;;3.48;68.32;100400.30;1761440;81;21354;-60
2022/02/20 05:54:50;;;;;;;6.83;3.17;;;;;;;3.52;68.28;100404.48;1761659;81;21449;-62
2022/02/20 05:58:01;;;;;;;6.10;3.05;;;;;;;3.55;68.25;100409.63;1761603;81;21259;-60
2022/02/20 06:01:13;;;;;;;7.58;3.15;;;;;;;3.57;68.30;100401.72;1748688;80;21197;-61
2022/02/20 06:04:22;;;;;;;7.08;3.90;;;;;;;3.63;68.28;100407.96;1740016;81;21363;-61
2022/02/20 06:07:30;;;;;;;7.55;4.12;;;;;;;3.67;68.19;100406.73;1737156;82;21331;-59
2022/02/20 06:10:54;;;;;;;7.87;3.77;;;;;;;3.74;68.08;100405.19;1731378;82;21726;-61
2022/02/20 06:14:05;;;;;;;7.45;3.80;;;;;;;3.79;67.99;100407.53;1733533;82;21181;-60
2022/02/20 06:17:22;;;;;;;10.30;4.40;;;;;;;3.85;67.90;100422.75;1739932;82;21233;-61
2022/02/20 06:20:46;;;;;;;7.65;3.98;;;;;;;3.92;67.84;100427.11;1739827;81;21209;-61
2022/02/20 06:23:56;;;;;;;15.00;4.55;;;;;;;3.99;67.68;100429.17;1740048;82;21722;-61
2022/02/20 06:27:09;;;;;;;7.60;3.87;;;;;;;4.06;67.55;100429.51;1739773;82;21192;-61
2022/02/20 06:30:17;;;;;;;10.05;3.58;;;;;;;4.11;67.24;100433.52;1754414;79;21200;-61
2022/02/20 06:33:23;;;;;;;6.85;4.25;;;;;;;4.17;67.02;100431.62;1769277;80;21189;-61
2022/02/20 06:36:30;;;;;;;12.73;7.15;;;;;;;4.22;66.96;100443.40;1767060;79;21352;-61
2022/02/20 06:39:44;;;;;;;14.58;6.83;;;;;;;4.27;66.83;100455.57;1765944;81;21262;-60
2022/02/20 06:42:46;;;;;;;7.33;4.22;;;;;;;4.31;66.72;100453.45;1768115;80;21201;-61
2022/02/20 06:45:52;;;;;;;12.30;4.72;;;;;;;4.38;66.49;100455.97;1769322;81;21363;-62
2022/02/20 06:49:00;;;;;;;10.85;5.42;;;;;;;4.42;66.27;100469.62;1768364;81;21201;-61
2022/02/20 06:52:15;;;;;;;19.32;7.75;;;;;;;4.45;66.32;100459.38;1769046;81;21821;-61
2022/02/20 06:55:40;;;;;;;20.88;8.33;;;;;;;4.51;66.11;100460.19;1719980;83;21267;-60
2022/02/20 06:58:46;;;;;;;11.57;5.03;;;;;;;4.56;65.87;100462.00;1703889;84;21686;-61
2022/02/20 07:01:51;;;;;;;12.03;3.87;;;;;;;4.60;65.81;100476.98;1719253;83;21210;-60
2022/02/20 07:04:58;;;;;;;8.25;4.42;;;;;;;4.65;65.74;100472.51;1704283;83;21228;-61
2022/02/20 07:08:04;;;;;;;9.25;4.87;;;;;;;4.69;65.51;100483.46;1719958;83;21333;-61
2022/02/20 07:11:10;;;;;;;8.08;4.40;;;;;;;4.73;65.42;100473.17;1704319;83;21386;-61
2022/02/20 07:14:16;;;;;;;11.63;4.92;;;;;;;4.77;65.32;100471.92;1720359;83;21362;-60
2022/02/20 07:17:22;;;;;;;9.68;4.53;;;;;;;4.82;65.38;100475.09;1699260;84;21378;-61
2022/02/20 07:20:30;;;;;;;8.38;4.17;;;;;;;4.88;65.21;100474.53;1711621;83;21236;-60
2022/02/20 07:23:42;;;;;;;9.60;4.78;;;;;;;4.94;65.02;100479.40;1712044;84;21221;-60
2022/02/20 07:26:48;;;;;;;9.90;4.10;;;;;;;4.98;65.05;100484.41;1712462;84;21347;-61
2022/02/20 07:29:54;;;;;;;10.88;3.65;;;;;;;5.03;65.09;100486.21;1767236;80;21413;-61
2022/02/20 07:33:04;;;;;;;10.30;3.90;;;;;;;5.11;64.71;100493.66;1767267;80;21932;-60
2022/02/20 07:36:10;;;;;;;7.25;3.72;;;;;;;5.13;64.23;100483.52;1768418;80;21332;-61
2022/02/20 07:39:16;;;;;;;8.98;3.92;;;;;;;5.16;64.38;100496.33;1767869;81;21387;-61
2022/02/20 07:42:22;;;;;;;10.35;3.70;;;;;;;5.22;64.27;100505.75;1768301;80;21402;-61
2022/02/20 07:45:28;;;;;;;9.53;4.15;;;;;;;5.25;64.01;100500.07;1768020;80;21402;-61
2022/02/20 07:48:36;;;;;;;8.85;3.50;;;;;;;5.29;64.14;100509.15;1768431;80;21356;-60
2022/02/20 07:51:41;;;;;;;7.42;3.45;;;;;;;5.34;64.26;100507.37;1768712;80;21257;-60
2022/02/20 07:54:47;;;;;;;6.22;3.02;;;;;;;5.39;64.11;100504.58;1766824;81;21210;-60
2022/02/20 07:57:53;;;;;;;8.05;3.85;;;;;;;5.43;64.23;100501.95;1767338;81;21304;-59
2022/02/20 08:01:00;;;;;;;10.15;4.50;;;;;;;5.49;64.38;100502.75;1769083;80;21379;-61
2022/02/20 08:04:08;;;;;;;6.15;3.35;;;;;;;5.56;64.21;100513.91;1769370;80;21233;-61
2022/02/20 08:07:14;;;;;;;9.08;3.58;;;;;;;5.60;64.08;100509.89;1770346;80;21873;-60
2022/02/20 08:10:24;;;;;;;7.58;3.40;;;;;;;5.65;64.26;100506.26;1769085;79;21769;-60
2022/02/20 08:13:32;;;;;;;7.85;3.50;;;;;;;5.71;64.28;100504.33;1768636;81;21173;-60
2022/02/20 08:16:37;;;;;;;9.98;4.17;;;;;;;5.77;64.10;100507.86;1768716;80;21694;-60
2022/02/20 08:19:43;;;;;;;8.95;4.25;;;;;;;5.81;63.99;100514.70;1760021;81;21209;-60
2022/02/20 08:22:50;;;;;;;11.60;3.50;;;;;;;5.85;63.69;100516.19;1769610;80;21235;-60
2022/02/20 08:25:56;;;;;;;9.63;3.85;;;;;;;5.88;63.54;100534.39;1770566;80;21220;-60
2022/02/20 08:29:01;;;;;;;8.48;3.85;;;;;;;5.90;63.06;100520.67;1770971;80;21229;-60
2022/02/20 08:32:06;;;;;;;7.37;3.62;;;;;;;5.90;62.94;100517.45;1770795;80;21820;-60
2022/02/20 08:35:14;;;;;;;7.00;3.65;;;;;;;5.95;63.10;100529.25;1770117;80;21216;-60
2022/02/20 08:38:21;;;;;;;11.28;3.85;;;;;;;5.99;62.84;100530.17;1767339;80;21527;-60
2022/02/20 08:41:30;;;;;;;9.35;3.37;;;;;;;6.01;63.11;100534.97;1770366;80;21248;-61
2022/02/20 08:44:36;;;;;;;7.12;3.05;;;;;;;6.03;62.68;100525.32;1769416;80;21272;-60
2022/02/20 08:47:43;;;;;;;6.47;2.90;;;;;;;6.05;62.92;100533.70;1770584;80;21227;-61
2022/02/20 08:50:49;;;;;;;9.53;3.62;;;;;;;6.08;62.35;100522.55;1768596;81;21248;-61
2022/02/20 08:53:54;;;;;;;7.35;3.70;;;;;;;6.10;62.06;100538.70;1770180;80;21625;-60
2022/02/20 08:57:00;;;;;;;5.00;3.05;;;;;;;6.10;62.21;100538.70;1769559;79;21189;-58
2022/02/20 09:00:06;;;;;;;6.50;3.00;;;;;;;6.10;62.01;100561.80;1770360;80;21294;-60
2022/02/20 09:03:11;;;;;;;9.35;4.03;;;;;;;6.13;61.99;100534.34;1757098;81;21162;-59
2022/02/20 09:06:18;;;;;;;7.78;3.30;;;;;;;6.19;62.43;100533.75;1769326;79;21196;-59
2022/02/20 09:09:26;;;;;;;8.23;3.42;;;;;;;6.28;62.89;100532.04;1769301;79;21244;-60
2022/02/20 09:12:32;;;;;;;7.45;3.37;;;;;;;6.39;63.04;100543.59;1769477;80;21189;-60
2022/02/20 09:15:37;;;;;;;8.95;3.60;;;;;;;6.49;62.99;100532.20;1769359;79;21220;-59
2022/02/20 09:18:42;;;;;;;7.03;3.30;;;;;;;6.61;62.99;100538.34;1769125;80;21184;-60
2022/02/20 09:21:49;;;;;;;6.95;3.52;;;;;;;6.65;61.95;100543.34;1768221;80;21193;-60
2022/02/20 09:24:55;;;;;;;8.55;3.35;;;;;;;6.68;62.00;100545.77;1768233;79;21731;-60
2022/02/20 09:28:01;;;;;;;8.10;3.72;;;;;;;6.72;61.60;100558.08;1766749;80;21189;-59
2022/02/20 09:31:09;;;;;;;8.88;4.67;;;;;;;6.72;61.53;100541.76;1766734;80;21248;-59
2022/02/20 09:34:14;;;;;;;8.03;3.70;;;;;;;6.78;61.77;100545.24;1768180;80;21170;-60
2022/02/20 09:37:19;;;;;;;10.15;3.62;;;;;;;6.83;61.27;100538.86;1769361;80;21555;-60
2022/02/20 09:40:24;;;;;;;8.38;3.80;;;;;;;6.87;61.48;100530.74;1765888;79;21201;-59
2022/02/20 09:43:29;;;;;;;4.92;3.02;;;;;;;6.94;61.30;100523.71;1745265;81;21185;-60
2022/02/20 09:46:37;;;;;;;10.03;3.40;;;;;;;7.01;60.55;100525.30;1738187;82;21239;-59
2022/02/20 09:49:42;;;;;;;7.00;3.47;;;;;;;7.00;60.43;100520.38;1766080;81;21301;-60
2022/02/20 09:52:49;;;;;;;7.55;3.52;;;;;;;7.02;60.14;100527.03;1767573;80;21193;-61
2022/02/20 09:55:56;;;;;;;8.20;3.25;;;;;;;7.02;60.29;100525.67;1767963;80;21275;-60
2022/02/20 09:59:03;;;;;;;8.45;4.28;;;;;;;7.03;59.88;100519.21;1768751;80;21256;-60
2022/02/20 10:02:14;;;;;;;8.13;3.60;;;;;;;7.04;59.85;100520.42;1767824;80;21256;-59
2022/02/20 10:05:27;;;;;;;6.95;3.08;;;;;;;7.07;60.04;100544.61;1764836;79;21224;-61
2022/02/20 10:08:32;;;;;;;11.65;4.55;;;;;;;7.07;59.31;100526.92;1766419;81;21189;-60
2022/02/20 10:11:38;;;;;;;10.32;4.45;;;;;;;7.10;59.68;100528.51;1767361;81;21943;-60
2022/02/20 10:14:47;;;;;;;9.83;5.00;;;;;;;7.17;60.02;100523.66;1768147;79;21267;-59
2022/02/20 10:17:54;;;;;;;8.88;4.22;;;;;;;7.29;60.20;100523.80;1767999;81;21240;-60
2022/02/20 10:21:18;;;;;;;9.20;4.17;;;;;;;7.37;59.65;100529.35;1768148;79;21178;-60
2022/02/20 10:24:42;;;;;;;6.62;3.75;;;;;;;7.42;59.22;100532.48;1764348;79;21181;-62
2022/02/20 10:28:04;;;;;;;9.25;5.12;;;;;;;7.54;59.55;100531.28;1769096;81;21244;-60
2022/02/20 10:31:13;;;;;;;5.95;3.50;;;;;;;7.63;58.61;100528.98;1756192;80;21695;-60
2022/02/20 10:34:28;;;;;;;6.97;3.17;;;;;;;7.72;58.00;100522.27;1769956;79;21165;-60
2022/02/20 10:37:40;;;;;;;9.18;5.28;;;;;;;7.78;57.80;100527.96;1738885;82;21349;-59
2022/02/20 10:40:52;;;;;;;6.78;3.90;;;;;;;7.87;57.53;100513.89;1738994;79;21240;-59
2022/02/20 10:43:58;;;;;;;9.68;3.70;;;;;;;7.87;57.11;100517.48;1765285;81;21195;-59
2022/02/20 10:47:19;;;;;;;8.10;3.72;;;;;;;7.88;57.69;100516.98;1767462;80;21252;-61
2022/02/20 10:50:28;;;;;;;7.22;3.05;;;;;;;7.99;57.74;100510.77;1752751;81;21208;-60
2022/02/20 10:53:40;;;;;;;6.87;3.58;;;;;;;8.12;57.16;100510.41;1767079;80;21242;-60
2022/02/20 10:56:47;;;;;;;7.03;3.37;;;;;;;8.27;57.03;100510.20;1754286;81;21187;-61
2022/02/20 10:59:56;;;;;;;6.42;3.08;;;;;;;8.35;56.61;100496.64;1769041;79;21218;-59
2022/02/20 11:03:16;;;;;;;6.70;3.45;;;;;;;8.24;56.37;100508.66;1766043;81;21182;-60
2022/02/20 11:06:24;;;;;;;7.30;3.40;;;;;;;8.09;56.67;100503.88;1768880;80;21210;-60
2022/02/20 11:09:29;;;;;;;5.95;2.87;;;;;;;8.00;56.84;100508.41;1768795;80;21614;-60
2022/02/20 11:12:35;;;;;;;10.25;3.50;;;;;;;7.86;56.73;100506.24;1759832;80;21300;-60
2022/02/20 11:15:43;;;;;;;7.78;3.37;;;;;;;7.77;57.00;100518.05;1766241;78;22053;-60
2022/02/20 11:18:48;;;;;;;10.10;5.28;;;;;;;7.76;56.92;100516.34;1767967;81;21228;-61
2022/02/20 11:21:57;;;;;;;12.63;7.53;;;;;;;7.90;56.92;100511.72;1738544;82;21196;-60
2022/02/20 11:25:04;;;;;;;11.15;4.90;;;;;;;8.14;56.77;100506.98;1757345;81;21292;-61
2022/02/20 11:28:12;;;;;;;10.23;3.77;;;;;;;8.33;56.21;100515.02;1769335;80;21177;-60
2022/02/20 11:31:19;;;;;;;13.30;8.35;;;;;;;8.46;55.05;100510.88;1769796;79;21212;-60
2022/02/20 11:34:24;;;;;;;13.00;7.40;;;;;;;8.45;54.02;100513.77;1769608;79;21792;-60
2022/02/20 11:37:32;;;;;;;11.03;5.72;;;;;;;8.32;53.41;100513.32;1769066;80;21185;-61
2022/02/20 11:40:37;;;;;;;9.88;4.35;;;;;;;8.31;53.68;100506.16;1759948;80;21276;-60
2022/02/20 11:43:55;;;;;;;4.87;2.75;;;;;;;8.51;54.15;100516.72;1739063;82;21761;-62
2022/02/20 11:47:02;;;;;;;7.22;2.33;;;;;;;8.70;53.75;100517.02;1738497;82;21746;-61
2022/02/20 11:50:34;;;;;;;4.90;2.40;;;;;;;8.84;52.72;100515.92;1762315;79;21232;-60
2022/02/20 11:53:41;;;;;;;4.97;2.37;;;;;;;8.99;52.61;100502.53;1769959;80;21695;-61
2022/02/20 11:56:46;;;;;;;9.00;2.52;;;;;;;9.09;52.23;100512.80;1770210;80;21551;-61
2022/02/20 12:00:14;;;;;;;5.03;2.55;;;;;;;9.00;52.20;100494.67;1769409;79;21193;-61
2022/02/20 12:03:20;;;;;;;8.33;3.35;;;;;;;9.04;52.23;100496.04;1769410;80;21761;-62
2022/02/20 12:06:31;;;;;;;7.40;2.87;;;;;;;9.18;52.37;100489.95;1769524;79;21264;-60
2022/02/20 12:09:39;;;;;;;4.17;2.20;;;;;;;9.29;52.52;100500.62;1762883;81;21212;-62
2022/02/20 12:12:48;;;;;;;5.53;3.05;;;;;;;9.21;52.28;100492.89;1765946;80;21198;-61
2022/02/20 12:15:54;;;;;;;4.78;2.40;;;;;;;8.99;52.58;100486.14;1766926;80;21264;-62
2022/02/20 12:19:28;;;;;;;3.33;1.92;;;;;;;8.92;52.57;100489.16;1765740;81;21703;-60
2022/02/20 12:22:33;;;;;;;6.80;3.20;;;;;;;8.82;52.26;100493.38;1767399;80;21181;-61
2022/02/20 12:25:44;;;;;;;13.95;4.47;;;;;;;8.69;52.55;100487.49;1768068;80;21252;-62
2022/02/20 12:28:51;;;;;;;4.42;2.40;;;;;;;8.66;52.86;100495.14;1768780;81;21197;-61
2022/02/20 12:32:34;;;;;;;4.12;2.52;;;;;;;8.70;52.15;100488.36;1768655;81;21286;-61
2022/02/20 12:35:40;;;;;;;4.70;1.90;;;;;;;8.79;51.96;100473.73;1768177;80;21733;-60
2022/02/20 12:39:04;;;;;;;4.97;1.80;;;;;;;9.00;51.78;100464.64;1768247;80;21161;-61
2022/02/20 12:42:12;;;;;;;7.55;2.50;;;;;;;9.10;51.02;100451.19;1769483;78;21201;-61
2022/02/20 12:45:23;;;;;;;4.17;1.82;;;;;;;9.21;50.63;100450.05;1768477;79;21205;-61
2022/02/20 12:48:28;;;;;;;6.53;2.58;;;;;;;9.29;50.29;100455.55;1768228;80;21201;-60
2022/02/20 12:51:39;;;;;;;3.40;1.62;;;;;;;9.39;50.16;100452.67;1727951;82;21196;-62
2022/02/20 12:54:47;;;;;;;3.85;2.20;;;;;;;9.54;50.04;100445.52;1703727;82;21237;-60
2022/02/20 12:57:53;;;;;;;6.45;3.00;;;;;;;9.68;50.17;100448.95;1718815;82;21233;-62
2022/02/20 13:00:59;;;;;;;4.53;2.20;;;;;;;9.84;49.81;100450.35;1723406;81;21951;-61
2022/02/20 13:04:06;;;;;;;4.90;1.98;;;;;;;9.91;49.54;100445.92;1698440;84;21210;-62
2022/02/20 13:07:12;;;;;;;5.17;2.17;;;;;;;9.96;49.47;100438.04;1709575;82;21215;-60
2022/02/20 13:10:28;;;;;;;6.80;3.75;;;;;;;9.99;49.22;100433.09;1691004;83;21206;-61
2022/02/20 13:13:36;;;;;;;14.15;8.35;;;;;;;10.03;48.92;100434.47;1691464;85;21220;-62
2022/02/20 13:16:42;;;;;;;23.73;11.68;;;;;;;10.08;48.89;100430.75;1707225;83;21331;-62
2022/02/20 13:19:48;;;;;;;23.55;11.63;;;;;;;10.17;49.17;100426.98;1769724;79;21212;-62
2022/02/20 13:22:57;;;;;;;14.28;6.50;;;;;;;10.18;49.32;100429.21;1770707;80;21192;-61
2022/02/20 13:26:16;;;;;;;8.65;4.30;;;;;;;10.22;49.47;100420.48;1769492;79;21213;-61
2022/02/20 13:29:23;;;;;;;11.78;6.62;;;;;;;10.25;48.77;100418.76;1769635;79;21247;-61
2022/02/20 13:32:30;;;;;;;9.63;5.67;;;;;;;10.24;48.52;100417.03;1769231;80;21188;-62
2022/02/20 13:35:39;;;;;;;8.45;4.17;;;;;;;10.18;48.59;100423.20;1765429;81;21220;-61
2022/02/20 13:38:50;;;;;;;6.92;3.08;;;;;;;10.09;48.96;100428.34;1768058;80;21197;-61
2022/02/20 13:41:58;;;;;;;7.10;3.77;;;;;;;9.98;49.22;100432.77;1769218;80;22020;-62
2022/02/20 13:45:14;;;;;;;10.03;4.10;;;;;;;9.85;49.33;100422.84;1766302;80;21914;-61
2022/02/20 13:48:43;;;;;;;8.95;4.70;;;;;;;9.79;49.65;100430.36;1740008;82;21272;-61
2022/02/20 13:51:53;;;;;;;8.98;4.22;;;;;;;9.72;49.84;100433.41;1740014;81;21209;-61
2022/02/20 13:54:59;;;;;;;5.83;2.90;;;;;;;9.62;50.13;100432.73;1766116;81;21717;-61
2022/02/20 13:58:06;;;;;;;7.53;3.33;;;;;;;9.46;50.23;100429.11;1768668;80;21176;-62
2022/02/20 14:01:12;;;;;;;8.80;4.30;;;;;;;9.27;50.85;100433.00;1758600;81;21734;-61
2022/02/20 14:04:29;;;;;;;6.85;4.05;;;;;;;9.13;51.54;100429.54;1742014;81;21504;-62
2022/02/20 14:07:35;;;;;;;11.05;4.45;;;;;;;9.03;52.19;100417.39;1747871;81;21168;-61
2022/02/20 14:10:40;;;;;;;8.15;4.55;;;;;;;8.98;52.67;100413.42;1734430;82;21243;-62
2022/02/20 14:13:49;;;;;;;10.48;5.60;;;;;;;8.93;53.04;100411.70;1734528;82;21283;-62
2022/02/20 14:17:08;;;;;;;9.88;6.12;;;;;;;8.86;53.49;100406.03;1734379;82;21181;-64
2022/02/20 14:20:18;;;;;;;13.70;6.17;;;;;;;8.84;53.70;100397.68;1766119;79;21221;-62
2022/02/20 14:23:29;;;;;;;16.50;7.90;;;;;;;8.77;53.94;100402.07;1767555;81;21378;-62
2022/02/20 14:26:36;;;;;;;12.78;7.78;;;;;;;8.71;54.20;100386.36;1760637;81;21269;-62
2022/02/20 14:29:44;;;;;;;16.12;9.03;;;;;;;8.64;54.42;100382.59;1768560;81;21201;-62
2022/02/20 14:32:50;;;;;;;19.85;10.80;;;;;;;8.58;54.75;100391.41;1768611;80;21700;-62
2022/02/20 14:35:58;;;;;;;23.98;11.00;;;;;;;8.48;54.97;100380.61;1763511;80;21209;-62
2022/02/20 14:39:12;;;;;;;20.20;10.28;;;;;;;8.40;55.16;100379.73;1763461;81;21329;-61
2022/02/20 14:42:19;;;;;;;15.40;9.00;;;;;;;8.29;55.12;100382.73;1769661;81;21162;-62
2022/02/20 14:45:26;;;;;;;20.08;10.72;;;;;;;8.16;55.28;100378.19;1764206;79;21374;-61